TAF KBMG
KBMG 090520Z 0906/1006 00000KT P6SM SCT250 FM091500 15011G22KT P6SM BKN250 FM092200 20009KT P6SM SCT035 BKN100 FM100500 22006KT P6SM BKN010 AMD LTD TO CLD VIS AND WIND TIL 091400=
METAR KBMG
WC KBMG
WS KBMG
WV KBMG